| time (UTC) | temp C | wind direction | speed KPH | gust KPH | rain 1hr cm | rain 24hr cm | rain mn cm | humidity % | barometer mb |
| 20260510034547 | 11 | 0 | 0.0 | 4.8 | 0.00 | 0.86 | 0.86 | 96 | 1010.6 |
| 20260510033055 | 11 | 153 | 1.6 | 4.8 | 0.00 | 0.86 | 0.86 | 96 | 1010.5 |
| 20260510031549 | 11 | 0 | 0.0 | 0.0 | 0.00 | 0.86 | 0.86 | 96 | 1010.4 |
| 20260510030045 | 11 | 0 | 0.0 | 0.0 | 0.00 | 0.86 | 0.86 | 96 | 1010.5 |
| 20260510024549 | 10 | 0 | 0.0 | 3.2 | 0.00 | 0.86 | 0.86 | 95 | 1010.5 |
| 20260510023044 | 10 | 0 | 0.0 | 0.0 | 0.00 | 0.86 | 0.86 | 94 | 1010.7 |
| 20260510021637 | 11 | 92 | 1.6 | 3.2 | 0.00 | 0.86 | 0.86 | 94 | 1010.6 |
| 20260510020043 | 11 | 0 | 0.0 | 0.0 | 0.00 | 0.86 | 0.86 | 94 | 1010.6 |
| 20260510014556 | 11 | 0 | 0.0 | 0.0 | 0.00 | 0.86 | 0.86 | 94 | 1010.5 |
| 20260510013057 | 11 | 0 | 0.0 | 0.0 | 0.00 | 0.86 | 0.86 | 94 | 1010.3 |
| 20260510011543 | 11 | 0 | 0.0 | 0.0 | 0.00 | 0.86 | 0.86 | 94 | 1010.2 |
| 20260510010056 | 11 | 0 | 0.0 | 0.0 | 0.00 | 0.86 | 0.86 | 94 | 1010.2 |
| 20260510004546 | 11 | 0 | 0.0 | 0.0 | 0.00 | 0.86 | 0.86 | 94 | 1010.2 |
| 20260510003044 | 11 | 0 | 0.0 | 0.0 | 0.00 | 0.86 | 0.86 | 94 | 1010.1 |
| 20260510001546 | 12 | 0 | 0.0 | 0.0 | 0.00 | 0.86 | 0.86 | 94 | 1010.1 |
| 20260510000050 | 12 | 0 | 0.0 | 0.0 | 0.00 | 0.86 | 0.86 | 94 | 1010.0 |
| 20260509234546 | 12 | 0 | 0.0 | 0.0 | 0.00 | 0.86 | 0.86 | 94 | 1010.0 |
| 20260509233050 | 12 | 0 | 0.0 | 0.0 | 0.00 | 0.86 | 0.86 | 94 | 1010.0 |
| 20260509231558 | 12 | 0 | 0.0 | 3.2 | 0.10 | 0.86 | 0.86 | 94 | 1010.2 |
| 20260509230048 | 12 | 0 | 1.6 | 8.0 | 0.18 | 0.86 | 0.86 | 94 | 1010.3 |
| 20260509224541 | 12 | 175 | 1.6 | 6.4 | 0.25 | 0.86 | 0.86 | 93 | 1010.4 |
| 20260509223041 | 12 | 161 | 3.2 | 19.3 | 0.30 | 0.86 | 0.86 | 93 | 1010.1 |
| 20260509221543 | 13 | 158 | 0.0 | 6.4 | 0.20 | 0.76 | 0.76 | 93 | 1011.1 |
| 20260509220047 | 13 | 11 | 6.4 | 14.5 | 0.13 | 0.69 | 0.69 | 93 | 1010.3 |
| 20260509214545 | 13 | 0 | 1.6 | 6.4 | 0.05 | 0.58 | 0.58 | 93 | 1011.2 |
| 20260509213104 | 13 | 146 | 3.2 | 6.4 | 0.05 | 0.56 | 0.56 | 92 | 1010.4 |
| 20260509211546 | 13 | 0 | 0.0 | 0.0 | 0.13 | 0.56 | 0.56 | 92 | 1010.9 |
| 20260509210049 | 13 | 0 | 0.0 | 0.0 | 0.15 | 0.56 | 0.56 | 92 | 1010.8 |
| 20260509204542 | 13 | 0 | 0.0 | 0.0 | 0.13 | 0.53 | 0.53 | 92 | 1011.1 |
| 20260509203045 | 13 | 0 | 0.0 | 3.2 | 0.10 | 0.51 | 0.51 | 91 | 1010.9 |
| 20260509201548 | 13 | 0 | 0.0 | 0.0 | 0.05 | 0.41 | 0.41 | 91 | 1011.1 |
| 20260509200047 | 13 | 0 | 0.0 | 8.0 | 0.15 | 0.41 | 0.41 | 91 | 1011.2 |
| 20260509194556 | 13 | 180 | 4.8 | 16.1 | 0.36 | 0.41 | 0.41 | 90 | 1011.2 |
| 20260509193047 | 13 | 165 | 1.6 | 4.8 | 0.41 | 0.41 | 0.41 | 90 | 1010.0 |
| 20260509191557 | 13 | 0 | 1.6 | 4.8 | 0.36 | 0.36 | 0.36 | 90 | 1011.5 |
| 20260509190050 | 14 | 343 | 3.2 | 9.7 | 0.23 | 0.23 | 0.23 | 88 | 1011.6 |
| 20260509184541 | 14 | 309 | 0.0 | 8.0 | 0.05 | 0.05 | 0.05 | 88 | 1011.5 |
| 20260509183054 | 14 | 15 | 3.2 | 6.4 | 0.00 | 0.00 | 0.00 | 87 | 1010.9 |
| 20260509181545 | 14 | 246 | 1.6 | 6.4 | 0.00 | 0.00 | 0.00 | 86 | 1011.1 |
| 20260509180053 | 13 | 141 | 3.2 | 9.7 | 0.00 | 0.00 | 0.00 | 86 | 1010.6 |
| 20260509174545 | 13 | 184 | 3.2 | 12.9 | 0.00 | 0.00 | 0.00 | 85 | 1010.6 |
| 20260509173055 | 13 | 192 | 8.0 | 16.1 | 0.00 | 0.00 | 0.00 | 82 | 1010.6 |
| 20260509171550 | 14 | 152 | 6.4 | 11.3 | 0.00 | 0.00 | 0.00 | 78 | 1010.6 |
| 20260509170047 | 15 | 152 | 4.8 | 11.3 | 0.00 | 0.00 | 0.00 | 78 | 1010.7 |
| 20260509164546 | 15 | 156 | 3.2 | 11.3 | 0.00 | 0.00 | 0.00 | 81 | 1010.7 |
| 20260509163044 | 15 | 143 | 3.2 | 8.0 | 0.00 | 0.00 | 0.00 | 79 | 1011.0 |
| 20260509161553 | 15 | 198 | 1.6 | 8.0 | 0.00 | 0.00 | 0.00 | 79 | 1011.3 |
| 20260509160042 | 14 | 183 | 1.6 | 8.0 | 0.00 | 0.00 | 0.00 | 80 | 1011.5 |
| 20260509154548 | 15 | 171 | 3.2 | 9.7 | 0.00 | 0.00 | 0.00 | 79 | 1011.7 |
| 20260509153054 | 15 | 202 | 1.6 | 6.4 | 0.00 | 0.00 | 0.00 | 79 | 1011.6 |
| 20260509151541 | 14 | 163 | 1.6 | 8.0 | 0.00 | 0.00 | 0.00 | 79 | 1011.6 |
| 20260509150044 | 14 | 199 | 1.6 | 6.4 | 0.00 | 0.00 | 0.00 | 80 | 1011.8 |
| 20260509144549 | 13 | 147 | 3.2 | 8.0 | 0.00 | 0.00 | 0.00 | 82 | 1011.7 |
| 20260509143043 | 13 | 151 | 3.2 | 8.0 | 0.00 | 0.00 | 0.00 | 83 | 1011.9 |
| 20260509141544 | 13 | 145 | 3.2 | 11.3 | 0.00 | 0.00 | 0.00 | 85 | 1011.6 |
| 20260509140055 | 12 | 148 | 4.8 | 8.0 | 0.00 | 0.00 | 0.00 | 85 | 1011.9 |
| 20260509134541 | 12 | 190 | 1.6 | 9.7 | 0.00 | 0.00 | 0.00 | 87 | 1011.9 |
| 20260509133048 | 12 | 113 | 4.8 | 12.9 | 0.00 | 0.00 | 0.00 | 88 | 1011.8 |
| 20260509131550 | 12 | 154 | 1.6 | 6.4 | 0.00 | 0.00 | 0.00 | 90 | 1012.1 |
| 20260509130046 | 11 | 164 | 1.6 | 8.0 | 0.00 | 0.00 | 0.00 | 90 | 1012.3 |
| 20260509124551 | 11 | 0 | 0.0 | 6.4 | 0.00 | 0.00 | 0.00 | 90 | 1012.4 |
| 20260509123046 | 11 | 125 | 3.2 | 8.0 | 0.00 | 0.00 | 0.00 | 90 | 1012.0 |
| 20260509121550 | 11 | 0 | 1.6 | 11.3 | 0.00 | 0.00 | 0.00 | 90 | 1012.5 |
| 20260509120046 | 11 | 146 | 3.2 | 6.4 | 0.00 | 0.00 | 0.00 | 90 | 1012.6 |
| 20260509114542 | 11 | 0 | 0.0 | 3.2 | 0.00 | 0.00 | 0.00 | 90 | 1012.5 |
| 20260509113048 | 11 | 164 | 0.0 | 6.4 | 0.00 | 0.00 | 0.00 | 89 | 1012.6 |
| 20260509111551 | 11 | 136 | 1.6 | 6.4 | 0.00 | 0.00 | 0.00 | 89 | 1012.5 |
| 20260509110046 | 11 | 138 | 4.8 | 8.0 | 0.00 | 0.00 | 0.00 | 89 | 1012.4 |
| 20260509104546 | 11 | 137 | 1.6 | 8.0 | 0.00 | 0.00 | 0.00 | 89 | 1012.4 |
| 20260509103051 | 11 | 151 | 1.6 | 6.4 | 0.00 | 0.00 | 0.00 | 88 | 1012.3 |
| 20260509101547 | 11 | 0 | 0.0 | 3.2 | 0.00 | 0.00 | 0.00 | 88 | 1012.1 |
| 20260509100048 | 11 | 140 | 1.6 | 4.8 | 0.00 | 0.00 | 0.00 | 88 | 1011.9 |
| 20260509094557 | 10 | 0 | 0.0 | 0.0 | 0.00 | 0.05 | 0.00 | 87 | 1012.0 |
| 20260509093048 | 10 | 0 | 0.0 | 0.0 | 0.00 | 0.05 | 0.00 | 87 | 1011.9 |
| 20260509091553 | 11 | 0 | 0.0 | 1.6 | 0.00 | 0.05 | 0.00 | 87 | 1011.8 |
| 20260509090054 | 11 | 0 | 0.0 | 3.2 | 0.00 | 0.05 | 0.00 | 87 | 1011.8 |
| 20260509084558 | 11 | 0 | 0.0 | 3.2 | 0.00 | 0.05 | 0.00 | 87 | 1011.9 |
| 20260509083052 | 11 | 149 | 1.6 | 4.8 | 0.00 | 0.05 | 0.00 | 87 | 1012.1 |
| 20260509081544 | 11 | 0 | 0.0 | 1.6 | 0.00 | 0.05 | 0.00 | 87 | 1012.4 |
| 20260509080048 | 11 | 0 | 0.0 | 1.6 | 0.00 | 0.05 | 0.00 | 86 | 1012.3 |
| 20260509074606 | 11 | 0 | 0.0 | 0.0 | 0.00 | 0.05 | 0.00 | 86 | 1012.1 |
| 20260509073101 | 11 | 0 | 0.0 | 0.0 | 0.00 | 0.05 | 0.00 | 85 | 1012.0 |
| 20260509071545 | 11 | 0 | 0.0 | 4.8 | 0.00 | 0.05 | 0.00 | 85 | 1011.9 |
| 20260509070048 | 11 | 0 | 1.6 | 6.4 | 0.00 | 0.05 | 0.00 | 85 | 1011.9 |
| 20260509064547 | 11 | 185 | 4.8 | 8.0 | 0.00 | 0.05 | 0.00 | 85 | 1012.1 |
| 20260509063055 | 11 | 166 | 0.0 | 3.2 | 0.00 | 0.05 | 0.00 | 84 | 1012.2 |
| 20260509061548 | 11 | 0 | 0.0 | 3.2 | 0.00 | 0.05 | 0.00 | 83 | 1012.5 |
| 20260509060101 | 11 | 0 | 0.0 | 0.0 | 0.00 | 0.05 | 0.00 | 82 | 1012.5 |
| 20260509054548 | 11 | 0 | 0.0 | 1.6 | 0.00 | 0.05 | 0.00 | 82 | 1012.6 |
| 20260509053057 | 11 | 27 | 1.6 | 4.8 | 0.00 | 0.05 | 0.00 | 80 | 1012.7 |
| 20260509051548 | 10 | 0 | 0.0 | 3.2 | 0.00 | 0.05 | 0.00 | 80 | 1012.8 |
| 20260509050053 | 10 | 350 | 1.6 | 3.2 | 0.00 | 0.05 | 0.00 | 79 | 1012.7 |
| 20260509044547 | 11 | 349 | 0.0 | 3.2 | 0.00 | 0.05 | 0.00 | 78 | 1012.5 |
| 20260509043051 | 11 | 0 | 0.0 | 3.2 | 0.00 | 0.05 | 0.00 | 77 | 1012.5 |
| 20260509041556 | 11 | 0 | 0.0 | 1.6 | 0.00 | 0.05 | 0.00 | 76 | 1012.4 |
| 20260509040057 | 12 | 0 | 0.0 | 1.6 | 0.00 | 0.05 | 0.00 | 74 | 1012.6 |